Terminal Aerodrome Forecast
Issued by NWS Springfield, MO

Home | Current Version | Previous Version | Text Only | Print | Product List | Glossary On
Versions: 1 2 3 4 5 6 7 8 9 10 11 12 13 14 15 16 17 18 19 20
000
FTUS43 KSGF 201100
TAFSGF
TAF
KSGF 201120Z 2012/2112 15008KT P6SM BKN250
     FM201700 19010KT P6SM SCT045 BKN150
     FM210100 17008KT P6SM BKN040 OVC120
     FM210700 18006KT 5SM -SHRA BR OVC035=

USA.gov is the U.S. government's official web portal to all federal, state and local government web resources and services.